sensor_id;sensor_type;location;lat;lon;timestamp;P1;durP1;ratioP1;P2;durP2;ratioP2
6537;SDS011;3302;52.508;13.454;2023-02-23T00:01:23;22.27;;;9.37;;
6537;SDS011;3302;52.508;13.454;2023-02-23T00:03:52;17.47;;;8.97;;
6537;SDS011;3302;52.508;13.454;2023-02-23T00:06:23;18.43;;;8.53;;
6537;SDS011;3302;52.508;13.454;2023-02-23T00:08:50;19.10;;;9.47;;
6537;SDS011;3302;52.508;13.454;2023-02-23T00:11:16;20.63;;;8.87;;
6537;SDS011;3302;52.508;13.454;2023-02-23T00:13:44;17.23;;;9.00;;
6537;SDS011;3302;52.508;13.454;2023-02-23T00:16:12;20.57;;;8.77;;
6537;SDS011;3302;52.508;13.454;2023-02-23T00:18:43;16.67;;;8.73;;
6537;SDS011;3302;52.508;13.454;2023-02-23T00:21:19;18.53;;;8.63;;
6537;SDS011;3302;52.508;13.454;2023-02-23T00:23:48;17.30;;;9.63;;
6537;SDS011;3302;52.508;13.454;2023-02-23T00:26:20;19.63;;;8.80;;
6537;SDS011;3302;52.508;13.454;2023-02-23T00:28:47;19.93;;;8.73;;
6537;SDS011;3302;52.508;13.454;2023-02-23T00:31:15;14.97;;;8.27;;
6537;SDS011;3302;52.508;13.454;2023-02-23T00:33:41;18.63;;;10.53;;
6537;SDS011;3302;52.508;13.454;2023-02-23T00:36:11;15.13;;;8.77;;
6537;SDS011;3302;52.508;13.454;2023-02-23T00:38:39;18.17;;;9.27;;
6537;SDS011;3302;52.508;13.454;2023-02-23T00:41:06;17.87;;;9.60;;
6537;SDS011;3302;52.508;13.454;2023-02-23T00:43:34;18.67;;;9.80;;
6537;SDS011;3302;52.508;13.454;2023-02-23T00:46:02;18.20;;;10.13;;
6537;SDS011;3302;52.508;13.454;2023-02-23T00:48:32;16.10;;;9.27;;
6537;SDS011;3302;52.508;13.454;2023-02-23T00:51:02;19.63;;;9.40;;
6537;SDS011;3302;52.508;13.454;2023-02-23T00:53:30;21.83;;;10.90;;
6537;SDS011;3302;52.508;13.454;2023-02-23T00:55:56;19.90;;;9.40;;
6537;SDS011;3302;52.508;13.454;2023-02-23T00:58:23;20.07;;;9.33;;
6537;SDS011;3302;52.508;13.454;2023-02-23T01:00:50;17.63;;;9.63;;
6537;SDS011;3302;52.508;13.454;2023-02-23T01:03:17;18.93;;;9.23;;
6537;SDS011;3302;52.508;13.454;2023-02-23T01:05:43;23.07;;;10.33;;
6537;SDS011;3302;52.508;13.454;2023-02-23T01:08:10;18.80;;;9.47;;
6537;SDS011;3302;52.508;13.454;2023-02-23T01:10:40;22.00;;;10.13;;
6537;SDS011;3302;52.508;13.454;2023-02-23T01:13:07;16.73;;;9.97;;
6537;SDS011;3302;52.508;13.454;2023-02-23T01:15:34;19.07;;;9.67;;
6537;SDS011;3302;52.508;13.454;2023-02-23T01:18:09;19.87;;;10.17;;
6537;SDS011;3302;52.508;13.454;2023-02-23T01:20:36;24.70;;;10.00;;
6537;SDS011;3302;52.508;13.454;2023-02-23T01:23:02;18.03;;;10.00;;
6537;SDS011;3302;52.508;13.454;2023-02-23T01:25:29;17.47;;;10.03;;
6537;SDS011;3302;52.508;13.454;2023-02-23T01:27:55;24.50;;;10.40;;
6537;SDS011;3302;52.508;13.454;2023-02-23T01:30:20;17.50;;;10.70;;
6537;SDS011;3302;52.508;13.454;2023-02-23T01:32:47;17.27;;;9.37;;
6537;SDS011;3302;52.508;13.454;2023-02-23T01:35:12;19.00;;;10.13;;
6537;SDS011;3302;52.508;13.454;2023-02-23T01:37:40;20.57;;;10.13;;
6537;SDS011;3302;52.508;13.454;2023-02-23T01:42:44;18.00;;;9.87;;
6537;SDS011;3302;52.508;13.454;2023-02-23T01:45:16;17.53;;;9.30;;
6537;SDS011;3302;52.508;13.454;2023-02-23T01:48:01;20.60;;;9.57;;
6537;SDS011;3302;52.508;13.454;2023-02-23T01:50:44;19.37;;;9.70;;
6537;SDS011;3302;52.508;13.454;2023-02-23T01:53:43;23.43;;;10.27;;
6537;SDS011;3302;52.508;13.454;2023-02-23T01:56:25;20.20;;;10.30;;
6537;SDS011;3302;52.508;13.454;2023-02-23T01:58:56;21.23;;;9.47;;
6537;SDS011;3302;52.508;13.454;2023-02-23T02:01:23;16.43;;;9.37;;
6537;SDS011;3302;52.508;13.454;2023-02-23T02:03:56;17.20;;;10.10;;
6537;SDS011;3302;52.508;13.454;2023-02-23T02:06:26;17.90;;;10.17;;
6537;SDS011;3302;52.508;13.454;2023-02-23T02:08:53;19.80;;;11.37;;
6537;SDS011;3302;52.508;13.454;2023-02-23T02:11:24;20.93;;;10.77;;
6537;SDS011;3302;52.508;13.454;2023-02-23T02:13:56;17.20;;;9.17;;
6537;SDS011;3302;52.508;13.454;2023-02-23T02:19:58;17.47;;;9.30;;
6537;SDS011;3302;52.508;13.454;2023-02-23T02:44:14;18.07;;;9.83;;
6537;SDS011;3302;52.508;13.454;2023-02-23T02:46:48;20.17;;;10.63;;
6537;SDS011;3302;52.508;13.454;2023-02-23T02:49:31;22.47;;;11.20;;
6537;SDS011;3302;52.508;13.454;2023-02-23T02:54:51;20.17;;;10.00;;
6537;SDS011;3302;52.508;13.454;2023-02-23T02:57:21;17.67;;;9.70;;
6537;SDS011;3302;52.508;13.454;2023-02-23T02:59:50;17.87;;;10.07;;
6537;SDS011;3302;52.508;13.454;2023-02-23T03:02:37;21.13;;;10.90;;
6537;SDS011;3302;52.508;13.454;2023-02-23T03:05:35;20.40;;;10.13;;
6537;SDS011;3302;52.508;13.454;2023-02-23T03:08:52;19.63;;;10.00;;
6537;SDS011;3302;52.508;13.454;2023-02-23T03:12:16;19.53;;;9.87;;
6537;SDS011;3302;52.508;13.454;2023-02-23T03:18:26;18.73;;;10.17;;
6537;SDS011;3302;52.508;13.454;2023-02-23T03:21:24;18.93;;;10.03;;
6537;SDS011;3302;52.508;13.454;2023-02-23T03:30:53;22.97;;;10.50;;
6537;SDS011;3302;52.508;13.454;2023-02-23T03:37:15;18.53;;;10.00;;
6537;SDS011;3302;52.508;13.454;2023-02-23T03:40:24;21.57;;;10.60;;
6537;SDS011;3302;52.508;13.454;2023-02-23T03:43:16;18.20;;;10.53;;
6537;SDS011;3302;52.508;13.454;2023-02-23T03:46:03;20.30;;;10.70;;
6537;SDS011;3302;52.508;13.454;2023-02-23T03:48:52;16.57;;;10.20;;
6537;SDS011;3302;52.508;13.454;2023-02-23T03:51:40;18.33;;;10.17;;
6537;SDS011;3302;52.508;13.454;2023-02-23T03:54:33;17.53;;;10.80;;
6537;SDS011;3302;52.508;13.454;2023-02-23T03:57:22;19.60;;;11.17;;
6537;SDS011;3302;52.508;13.454;2023-02-23T04:00:10;21.20;;;11.77;;
6537;SDS011;3302;52.508;13.454;2023-02-23T04:02:57;21.60;;;11.10;;
6537;SDS011;3302;52.508;13.454;2023-02-23T04:05:43;23.33;;;11.73;;
6537;SDS011;3302;52.508;13.454;2023-02-23T04:08:29;18.80;;;10.40;;
6537;SDS011;3302;52.508;13.454;2023-02-23T04:11:20;23.43;;;11.37;;
6537;SDS011;3302;52.508;13.454;2023-02-23T04:14:14;22.27;;;10.57;;
6537;SDS011;3302;52.508;13.454;2023-02-23T04:16:45;17.30;;;10.43;;
6537;SDS011;3302;52.508;13.454;2023-02-23T04:19:12;21.93;;;10.60;;
6537;SDS011;3302;52.508;13.454;2023-02-23T04:21:38;23.33;;;11.20;;
6537;SDS011;3302;52.508;13.454;2023-02-23T04:24:04;21.30;;;10.30;;
6537;SDS011;3302;52.508;13.454;2023-02-23T04:26:29;20.73;;;10.47;;
6537;SDS011;3302;52.508;13.454;2023-02-23T04:28:55;17.93;;;10.30;;
6537;SDS011;3302;52.508;13.454;2023-02-23T04:31:21;21.20;;;10.80;;
6537;SDS011;3302;52.508;13.454;2023-02-23T04:33:49;18.07;;;10.90;;
6537;SDS011;3302;52.508;13.454;2023-02-23T04:36:15;18.93;;;11.00;;
6537;SDS011;3302;52.508;13.454;2023-02-23T04:38:41;19.83;;;9.87;;
6537;SDS011;3302;52.508;13.454;2023-02-23T04:41:07;21.20;;;10.97;;
6537;SDS011;3302;52.508;13.454;2023-02-23T04:43:33;22.67;;;11.60;;
6537;SDS011;3302;52.508;13.454;2023-02-23T04:45:59;19.73;;;10.07;;
6537;SDS011;3302;52.508;13.454;2023-02-23T04:48:25;19.63;;;10.97;;
6537;SDS011;3302;52.508;13.454;2023-02-23T04:50:52;16.80;;;10.23;;
6537;SDS011;3302;52.508;13.454;2023-02-23T04:53:18;20.80;;;9.80;;
6537;SDS011;3302;52.508;13.454;2023-02-23T04:55:44;18.27;;;11.40;;
6537;SDS011;3302;52.508;13.454;2023-02-23T04:58:11;18.37;;;10.50;;
6537;SDS011;3302;52.508;13.454;2023-02-23T05:00:40;15.60;;;9.93;;
6537;SDS011;3302;52.508;13.454;2023-02-23T05:03:06;21.20;;;10.43;;
6537;SDS011;3302;52.508;13.454;2023-02-23T05:05:32;19.03;;;10.23;;
6537;SDS011;3302;52.508;13.454;2023-02-23T05:07:57;19.87;;;10.87;;
6537;SDS011;3302;52.508;13.454;2023-02-23T05:10:23;21.63;;;11.23;;
6537;SDS011;3302;52.508;13.454;2023-02-23T05:12:49;20.30;;;9.80;;
6537;SDS011;3302;52.508;13.454;2023-02-23T05:15:15;21.93;;;10.60;;
6537;SDS011;3302;52.508;13.454;2023-02-23T05:17:41;20.90;;;10.83;;
6537;SDS011;3302;52.508;13.454;2023-02-23T05:20:10;22.40;;;10.93;;
6537;SDS011;3302;52.508;13.454;2023-02-23T05:22:37;20.27;;;9.73;;
6537;SDS011;3302;52.508;13.454;2023-02-23T05:25:03;24.67;;;10.87;;
6537;SDS011;3302;52.508;13.454;2023-02-23T05:27:29;17.80;;;10.07;;
6537;SDS011;3302;52.508;13.454;2023-02-23T05:29:57;17.63;;;10.63;;
6537;SDS011;3302;52.508;13.454;2023-02-23T05:32:22;18.23;;;9.93;;
6537;SDS011;3302;52.508;13.454;2023-02-23T05:34:48;19.07;;;10.27;;
6537;SDS011;3302;52.508;13.454;2023-02-23T05:37:14;16.50;;;9.20;;
6537;SDS011;3302;52.508;13.454;2023-02-23T05:39:40;19.40;;;10.03;;
6537;SDS011;3302;52.508;13.454;2023-02-23T05:42:06;21.07;;;10.10;;
6537;SDS011;3302;52.508;13.454;2023-02-23T05:44:31;18.27;;;10.23;;
6537;SDS011;3302;52.508;13.454;2023-02-23T05:46:57;18.10;;;10.03;;
6537;SDS011;3302;52.508;13.454;2023-02-23T05:49:23;18.53;;;10.83;;
6537;SDS011;3302;52.508;13.454;2023-02-23T05:51:49;22.10;;;11.40;;
6537;SDS011;3302;52.508;13.454;2023-02-23T05:54:15;19.40;;;10.47;;
6537;SDS011;3302;52.508;13.454;2023-02-23T05:56:41;19.17;;;10.00;;
6537;SDS011;3302;52.508;13.454;2023-02-23T05:59:07;22.20;;;9.57;;
6537;SDS011;3302;52.508;13.454;2023-02-23T06:01:33;21.43;;;9.97;;
6537;SDS011;3302;52.508;13.454;2023-02-23T06:03:59;16.67;;;10.00;;
6537;SDS011;3302;52.508;13.454;2023-02-23T06:06:24;17.87;;;10.20;;
6537;SDS011;3302;52.508;13.454;2023-02-23T06:08:54;20.13;;;10.93;;
6537;SDS011;3302;52.508;13.454;2023-02-23T06:11:19;21.13;;;10.57;;
6537;SDS011;3302;52.508;13.454;2023-02-23T06:13:46;19.83;;;10.60;;
6537;SDS011;3302;52.508;13.454;2023-02-23T06:16:12;18.73;;;10.00;;
6537;SDS011;3302;52.508;13.454;2023-02-23T06:18:38;17.77;;;10.07;;
6537;SDS011;3302;52.508;13.454;2023-02-23T06:21:04;20.33;;;11.33;;
6537;SDS011;3302;52.508;13.454;2023-02-23T06:23:30;22.73;;;10.03;;
6537;SDS011;3302;52.508;13.454;2023-02-23T06:25:57;19.67;;;10.47;;
6537;SDS011;3302;52.508;13.454;2023-02-23T06:28:24;18.47;;;9.97;;
6537;SDS011;3302;52.508;13.454;2023-02-23T06:30:51;17.73;;;10.00;;
6537;SDS011;3302;52.508;13.454;2023-02-23T06:33:17;18.90;;;10.63;;
6537;SDS011;3302;52.508;13.454;2023-02-23T06:35:43;19.03;;;11.33;;
6537;SDS011;3302;52.508;13.454;2023-02-23T06:38:10;26.00;;;10.73;;
6537;SDS011;3302;52.508;13.454;2023-02-23T06:40:37;18.10;;;10.73;;
6537;SDS011;3302;52.508;13.454;2023-02-23T06:43:03;23.20;;;10.87;;
6537;SDS011;3302;52.508;13.454;2023-02-23T06:45:30;20.50;;;10.17;;
6537;SDS011;3302;52.508;13.454;2023-02-23T06:47:56;19.27;;;10.57;;
6537;SDS011;3302;52.508;13.454;2023-02-23T06:50:23;21.53;;;10.17;;
6537;SDS011;3302;52.508;13.454;2023-02-23T06:52:49;20.10;;;10.53;;
6537;SDS011;3302;52.508;13.454;2023-02-23T06:55:15;18.50;;;10.83;;
6537;SDS011;3302;52.508;13.454;2023-02-23T06:57:41;22.23;;;12.23;;
6537;SDS011;3302;52.508;13.454;2023-02-23T07:00:08;21.30;;;11.03;;
6537;SDS011;3302;52.508;13.454;2023-02-23T07:02:39;20.50;;;10.47;;
6537;SDS011;3302;52.508;13.454;2023-02-23T07:05:06;22.83;;;10.97;;
6537;SDS011;3302;52.508;13.454;2023-02-23T07:07:32;20.83;;;10.43;;
6537;SDS011;3302;52.508;13.454;2023-02-23T07:09:58;22.67;;;10.80;;
6537;SDS011;3302;52.508;13.454;2023-02-23T07:12:24;17.80;;;10.63;;
6537;SDS011;3302;52.508;13.454;2023-02-23T07:14:50;23.43;;;11.37;;
6537;SDS011;3302;52.508;13.454;2023-02-23T07:17:16;22.13;;;11.03;;
6537;SDS011;3302;52.508;13.454;2023-02-23T07:19:42;16.97;;;10.13;;
6537;SDS011;3302;52.508;13.454;2023-02-23T07:22:08;17.20;;;10.53;;
6537;SDS011;3302;52.508;13.454;2023-02-23T07:24:34;21.17;;;11.50;;
6537;SDS011;3302;52.508;13.454;2023-02-23T07:27:00;17.37;;;10.63;;
6537;SDS011;3302;52.508;13.454;2023-02-23T07:29:25;18.57;;;10.80;;
6537;SDS011;3302;52.508;13.454;2023-02-23T07:31:54;22.07;;;12.13;;
6537;SDS011;3302;52.508;13.454;2023-02-23T07:34:20;23.07;;;11.40;;
6537;SDS011;3302;52.508;13.454;2023-02-23T07:36:46;17.63;;;11.53;;
6537;SDS011;3302;52.508;13.454;2023-02-23T07:39:11;22.87;;;11.27;;
6537;SDS011;3302;52.508;13.454;2023-02-23T07:41:37;20.37;;;10.80;;
6537;SDS011;3302;52.508;13.454;2023-02-23T07:44:03;24.60;;;11.80;;
6537;SDS011;3302;52.508;13.454;2023-02-23T07:46:29;16.60;;;10.10;;
6537;SDS011;3302;52.508;13.454;2023-02-23T07:48:55;23.27;;;11.23;;
6537;SDS011;3302;52.508;13.454;2023-02-23T07:51:21;24.53;;;12.33;;
6537;SDS011;3302;52.508;13.454;2023-02-23T07:53:47;27.07;;;12.53;;
6537;SDS011;3302;52.508;13.454;2023-02-23T07:56:13;22.97;;;11.23;;
6537;SDS011;3302;52.508;13.454;2023-02-23T07:58:40;18.13;;;10.87;;
6537;SDS011;3302;52.508;13.454;2023-02-23T08:01:07;20.43;;;11.73;;
6537;SDS011;3302;52.508;13.454;2023-02-23T08:03:33;21.70;;;11.27;;
6537;SDS011;3302;52.508;13.454;2023-02-23T08:05:59;23.40;;;10.87;;
6537;SDS011;3302;52.508;13.454;2023-02-23T08:08:25;24.77;;;12.70;;
6537;SDS011;3302;52.508;13.454;2023-02-23T08:11:02;20.53;;;11.50;;
6537;SDS011;3302;52.508;13.454;2023-02-23T08:13:29;26.23;;;11.73;;
6537;SDS011;3302;52.508;13.454;2023-02-23T08:15:56;21.03;;;11.77;;
6537;SDS011;3302;52.508;13.454;2023-02-23T08:18:22;19.37;;;11.27;;
6537;SDS011;3302;52.508;13.454;2023-02-23T08:20:48;21.73;;;11.37;;
6537;SDS011;3302;52.508;13.454;2023-02-23T08:23:14;22.10;;;12.27;;
6537;SDS011;3302;52.508;13.454;2023-02-23T08:25:42;19.50;;;12.20;;
6537;SDS011;3302;52.508;13.454;2023-02-23T08:28:08;20.67;;;11.60;;
6537;SDS011;3302;52.508;13.454;2023-02-23T08:30:34;19.17;;;11.20;;
6537;SDS011;3302;52.508;13.454;2023-02-23T08:32:59;22.33;;;12.13;;
6537;SDS011;3302;52.508;13.454;2023-02-23T08:35:26;20.30;;;12.07;;
6537;SDS011;3302;52.508;13.454;2023-02-23T08:37:52;20.00;;;11.20;;
6537;SDS011;3302;52.508;13.454;2023-02-23T08:40:18;18.37;;;11.33;;
6537;SDS011;3302;52.508;13.454;2023-02-23T08:42:45;19.83;;;11.77;;
6537;SDS011;3302;52.508;13.454;2023-02-23T08:45:13;23.87;;;11.73;;
6537;SDS011;3302;52.508;13.454;2023-02-23T08:47:39;20.37;;;12.23;;
6537;SDS011;3302;52.508;13.454;2023-02-23T08:50:05;20.87;;;12.37;;
6537;SDS011;3302;52.508;13.454;2023-02-23T08:52:31;20.60;;;11.47;;
6537;SDS011;3302;52.508;13.454;2023-02-23T08:54:58;22.33;;;11.70;;
6537;SDS011;3302;52.508;13.454;2023-02-23T08:57:23;21.60;;;11.07;;
6537;SDS011;3302;52.508;13.454;2023-02-23T08:59:50;21.40;;;11.50;;
6537;SDS011;3302;52.508;13.454;2023-02-23T09:02:16;22.07;;;13.10;;
6537;SDS011;3302;52.508;13.454;2023-02-23T09:04:42;19.77;;;12.43;;
6537;SDS011;3302;52.508;13.454;2023-02-23T09:07:09;21.07;;;12.23;;
6537;SDS011;3302;52.508;13.454;2023-02-23T09:09:38;23.07;;;12.33;;
6537;SDS011;3302;52.508;13.454;2023-02-23T09:12:04;22.17;;;12.50;;
6537;SDS011;3302;52.508;13.454;2023-02-23T09:14:30;19.40;;;11.40;;
6537;SDS011;3302;52.508;13.454;2023-02-23T09:16:56;18.77;;;11.93;;
6537;SDS011;3302;52.508;13.454;2023-02-23T09:19:22;19.07;;;11.70;;
6537;SDS011;3302;52.508;13.454;2023-02-23T09:21:49;22.43;;;12.93;;
6537;SDS011;3302;52.508;13.454;2023-02-23T09:24:15;23.87;;;13.07;;
6537;SDS011;3302;52.508;13.454;2023-02-23T09:26:42;22.73;;;11.37;;
6537;SDS011;3302;52.508;13.454;2023-02-23T09:29:08;22.63;;;12.40;;
6537;SDS011;3302;52.508;13.454;2023-02-23T09:31:34;22.60;;;13.23;;
6537;SDS011;3302;52.508;13.454;2023-02-23T09:34:00;22.77;;;12.60;;
6537;SDS011;3302;52.508;13.454;2023-02-23T09:36:26;21.27;;;13.27;;
6537;SDS011;3302;52.508;13.454;2023-02-23T09:38:54;21.10;;;12.13;;
6537;SDS011;3302;52.508;13.454;2023-02-23T09:46:31;22.73;;;13.17;;
6537;SDS011;3302;52.508;13.454;2023-02-23T09:49:09;21.23;;;12.97;;
6537;SDS011;3302;52.508;13.454;2023-02-23T09:51:39;23.03;;;12.77;;
6537;SDS011;3302;52.508;13.454;2023-02-23T09:54:10;26.20;;;12.73;;
6537;SDS011;3302;52.508;13.454;2023-02-23T09:56:47;19.20;;;12.17;;
6537;SDS011;3302;52.508;13.454;2023-02-23T09:59:16;20.50;;;12.83;;
6537;SDS011;3302;52.508;13.454;2023-02-23T10:06:59;20.43;;;13.00;;
6537;SDS011;3302;52.508;13.454;2023-02-23T10:09:56;23.83;;;12.87;;
6537;SDS011;3302;52.508;13.454;2023-02-23T10:12:44;20.23;;;12.97;;
6537;SDS011;3302;52.508;13.454;2023-02-23T10:17:59;23.67;;;13.60;;
6537;SDS011;3302;52.508;13.454;2023-02-23T10:20:45;20.27;;;12.03;;
6537;SDS011;3302;52.508;13.454;2023-02-23T10:23:22;23.73;;;13.37;;
6537;SDS011;3302;52.508;13.454;2023-02-23T10:26:01;22.73;;;13.77;;
6537;SDS011;3302;52.508;13.454;2023-02-23T10:28:29;20.47;;;13.10;;
6537;SDS011;3302;52.508;13.454;2023-02-23T10:30:58;21.90;;;13.30;;
6537;SDS011;3302;52.508;13.454;2023-02-23T10:35:54;24.97;;;13.70;;
6537;SDS011;3302;52.508;13.454;2023-02-23T10:38:24;22.83;;;14.17;;
6537;SDS011;3302;52.508;13.454;2023-02-23T10:40:53;23.63;;;14.20;;
6537;SDS011;3302;52.508;13.454;2023-02-23T10:43:20;20.53;;;13.57;;
6537;SDS011;3302;52.508;13.454;2023-02-23T10:45:47;24.50;;;12.80;;
6537;SDS011;3302;52.508;13.454;2023-02-23T10:48:22;22.70;;;14.17;;
6537;SDS011;3302;52.508;13.454;2023-02-23T10:50:51;23.13;;;13.47;;
6537;SDS011;3302;52.508;13.454;2023-02-23T10:55:46;23.43;;;14.13;;
6537;SDS011;3302;52.508;13.454;2023-02-23T10:58:23;25.70;;;13.60;;
6537;SDS011;3302;52.508;13.454;2023-02-23T11:00:56;22.07;;;13.83;;
6537;SDS011;3302;52.508;13.454;2023-02-23T11:03:27;20.20;;;14.20;;
6537;SDS011;3302;52.508;13.454;2023-02-23T11:05:59;19.57;;;14.03;;
6537;SDS011;3302;52.508;13.454;2023-02-23T11:08:27;21.20;;;13.90;;
6537;SDS011;3302;52.508;13.454;2023-02-23T11:10:59;23.13;;;14.30;;
6537;SDS011;3302;52.508;13.454;2023-02-23T11:13:43;18.60;;;12.63;;
6537;SDS011;3302;52.508;13.454;2023-02-23T11:16:17;22.93;;;14.23;;
6537;SDS011;3302;52.508;13.454;2023-02-23T11:19:01;21.47;;;14.27;;
6537;SDS011;3302;52.508;13.454;2023-02-23T11:21:36;19.87;;;13.53;;
6537;SDS011;3302;52.508;13.454;2023-02-23T11:26:42;21.57;;;14.70;;
6537;SDS011;3302;52.508;13.454;2023-02-23T11:29:14;25.00;;;14.33;;
6537;SDS011;3302;52.508;13.454;2023-02-23T11:32:15;19.83;;;14.33;;
6537;SDS011;3302;52.508;13.454;2023-02-23T11:34:45;24.00;;;14.50;;
6537;SDS011;3302;52.508;13.454;2023-02-23T11:39:52;21.80;;;14.57;;
6537;SDS011;3302;52.508;13.454;2023-02-23T11:42:27;24.07;;;15.33;;
6537;SDS011;3302;52.508;13.454;2023-02-23T11:45:02;24.83;;;15.53;;
6537;SDS011;3302;52.508;13.454;2023-02-23T11:47:31;23.87;;;15.03;;
6537;SDS011;3302;52.508;13.454;2023-02-23T11:49:59;24.00;;;16.47;;
6537;SDS011;3302;52.508;13.454;2023-02-23T11:52:27;22.17;;;15.33;;
6537;SDS011;3302;52.508;13.454;2023-02-23T11:54:57;19.77;;;14.23;;
6537;SDS011;3302;52.508;13.454;2023-02-23T11:57:30;22.17;;;15.20;;
6537;SDS011;3302;52.508;13.454;2023-02-23T11:59:59;22.43;;;14.77;;
6537;SDS011;3302;52.508;13.454;2023-02-23T12:02:32;22.10;;;15.67;;
6537;SDS011;3302;52.508;13.454;2023-02-23T12:05:21;22.63;;;14.60;;
6537;SDS011;3302;52.508;13.454;2023-02-23T12:11:04;20.37;;;14.17;;
6537;SDS011;3302;52.508;13.454;2023-02-23T12:16:16;23.13;;;14.83;;
6537;SDS011;3302;52.508;13.454;2023-02-23T12:18:53;23.07;;;15.27;;
6537;SDS011;3302;52.508;13.454;2023-02-23T12:21:22;20.73;;;14.83;;
6537;SDS011;3302;52.508;13.454;2023-02-23T12:24:11;19.83;;;14.00;;
6537;SDS011;3302;52.508;13.454;2023-02-23T12:26:55;21.63;;;14.20;;
6537;SDS011;3302;52.508;13.454;2023-02-23T12:29:53;21.17;;;14.27;;
6537;SDS011;3302;52.508;13.454;2023-02-23T12:38:11;24.43;;;14.07;;
6537;SDS011;3302;52.508;13.454;2023-02-23T12:40:53;21.67;;;14.90;;
6537;SDS011;3302;52.508;13.454;2023-02-23T12:43:24;22.53;;;14.60;;
6537;SDS011;3302;52.508;13.454;2023-02-23T12:51:20;19.83;;;13.80;;
6537;SDS011;3302;52.508;13.454;2023-02-23T12:53:49;20.50;;;14.37;;
6537;SDS011;3302;52.508;13.454;2023-02-23T13:07:48;24.07;;;15.40;;
6537;SDS011;3302;52.508;13.454;2023-02-23T13:14:03;20.50;;;14.17;;
6537;SDS011;3302;52.508;13.454;2023-02-23T13:18:44;22.30;;;14.27;;
6537;SDS011;3302;52.508;13.454;2023-02-23T13:21:44;21.33;;;14.33;;
6537;SDS011;3302;52.508;13.454;2023-02-23T13:24:25;20.37;;;15.33;;
6537;SDS011;3302;52.508;13.454;2023-02-23T13:32:00;20.90;;;15.23;;
6537;SDS011;3302;52.508;13.454;2023-02-23T13:34:35;22.00;;;14.93;;
6537;SDS011;3302;52.508;13.454;2023-02-23T13:37:09;22.70;;;15.03;;
6537;SDS011;3302;52.508;13.454;2023-02-23T13:42:23;22.07;;;15.03;;
6537;SDS011;3302;52.508;13.454;2023-02-23T13:51:51;21.67;;;15.13;;
6537;SDS011;3302;52.508;13.454;2023-02-23T13:56:23;22.87;;;16.17;;
6537;SDS011;3302;52.508;13.454;2023-02-23T13:58:57;20.27;;;14.70;;
6537;SDS011;3302;52.508;13.454;2023-02-23T14:01:28;19.93;;;14.87;;
6537;SDS011;3302;52.508;13.454;2023-02-23T14:03:57;22.50;;;16.43;;
6537;SDS011;3302;52.508;13.454;2023-02-23T14:06:27;21.97;;;15.90;;
6537;SDS011;3302;52.508;13.454;2023-02-23T14:08:56;19.40;;;15.20;;
6537;SDS011;3302;52.508;13.454;2023-02-23T14:22:29;24.13;;;16.73;;
6537;SDS011;3302;52.508;13.454;2023-02-23T14:28:02;22.20;;;15.53;;
6537;SDS011;3302;52.508;13.454;2023-02-23T14:30:47;22.50;;;16.03;;
6537;SDS011;3302;52.508;13.454;2023-02-23T14:41:28;23.50;;;17.03;;
6537;SDS011;3302;52.508;13.454;2023-02-23T14:43:58;22.63;;;17.27;;
6537;SDS011;3302;52.508;13.454;2023-02-23T14:46:49;24.93;;;18.10;;
6537;SDS011;3302;52.508;13.454;2023-02-23T14:49:21;26.10;;;18.50;;
6537;SDS011;3302;52.508;13.454;2023-02-23T14:51:51;25.83;;;19.27;;
6537;SDS011;3302;52.508;13.454;2023-02-23T14:54:26;24.50;;;18.23;;
6537;SDS011;3302;52.508;13.454;2023-02-23T14:57:20;25.23;;;18.60;;
6537;SDS011;3302;52.508;13.454;2023-02-23T14:59:52;30.30;;;20.03;;
6537;SDS011;3302;52.508;13.454;2023-02-23T15:02:22;24.97;;;18.10;;
6537;SDS011;3302;52.508;13.454;2023-02-23T15:04:49;25.43;;;19.33;;
6537;SDS011;3302;52.508;13.454;2023-02-23T15:07:25;29.83;;;20.17;;
6537;SDS011;3302;52.508;13.454;2023-02-23T15:09:55;27.30;;;18.80;;
6537;SDS011;3302;52.508;13.454;2023-02-23T15:12:24;26.07;;;19.67;;
6537;SDS011;3302;52.508;13.454;2023-02-23T15:14:59;29.43;;;21.43;;
6537;SDS011;3302;52.508;13.454;2023-02-23T15:17:27;30.30;;;20.20;;
6537;SDS011;3302;52.508;13.454;2023-02-23T15:20:00;29.37;;;20.80;;
6537;SDS011;3302;52.508;13.454;2023-02-23T15:22:30;30.93;;;21.87;;
6537;SDS011;3302;52.508;13.454;2023-02-23T15:24:59;28.60;;;20.60;;
6537;SDS011;3302;52.508;13.454;2023-02-23T15:27:36;30.53;;;21.50;;
6537;SDS011;3302;52.508;13.454;2023-02-23T15:33:05;30.70;;;20.83;;
6537;SDS011;3302;52.508;13.454;2023-02-23T15:35:39;31.73;;;21.33;;
6537;SDS011;3302;52.508;13.454;2023-02-23T15:38:10;35.13;;;22.47;;
6537;SDS011;3302;52.508;13.454;2023-02-23T15:40:42;29.20;;;21.27;;
6537;SDS011;3302;52.508;13.454;2023-02-23T15:43:08;30.60;;;20.80;;
6537;SDS011;3302;52.508;13.454;2023-02-23T15:45:39;30.20;;;21.50;;
6537;SDS011;3302;52.508;13.454;2023-02-23T15:48:12;32.77;;;20.73;;
6537;SDS011;3302;52.508;13.454;2023-02-23T15:50:45;29.77;;;22.33;;
6537;SDS011;3302;52.508;13.454;2023-02-23T15:53:38;31.67;;;21.73;;
6537;SDS011;3302;52.508;13.454;2023-02-23T15:58:41;32.57;;;20.97;;
6537;SDS011;3302;52.508;13.454;2023-02-23T16:01:22;29.83;;;20.73;;
6537;SDS011;3302;52.508;13.454;2023-02-23T16:06:33;30.27;;;21.40;;
6537;SDS011;3302;52.508;13.454;2023-02-23T16:09:12;34.67;;;23.93;;
6537;SDS011;3302;52.508;13.454;2023-02-23T16:11:55;29.63;;;20.83;;
6537;SDS011;3302;52.508;13.454;2023-02-23T16:14:21;33.60;;;22.97;;
6537;SDS011;3302;52.508;13.454;2023-02-23T16:16:49;38.33;;;24.43;;
6537;SDS011;3302;52.508;13.454;2023-02-23T16:19:18;32.73;;;22.53;;
6537;SDS011;3302;52.508;13.454;2023-02-23T16:21:49;32.67;;;22.00;;
6537;SDS011;3302;52.508;13.454;2023-02-23T16:24:24;31.60;;;22.53;;
6537;SDS011;3302;52.508;13.454;2023-02-23T16:26:53;35.47;;;24.07;;
6537;SDS011;3302;52.508;13.454;2023-02-23T16:29:32;37.67;;;23.73;;
6537;SDS011;3302;52.508;13.454;2023-02-23T16:32:10;33.03;;;22.57;;
6537;SDS011;3302;52.508;13.454;2023-02-23T16:34:48;35.10;;;23.67;;
6537;SDS011;3302;52.508;13.454;2023-02-23T16:37:24;35.07;;;24.13;;
6537;SDS011;3302;52.508;13.454;2023-02-23T16:39:52;35.43;;;23.93;;
6537;SDS011;3302;52.508;13.454;2023-02-23T16:44:55;38.87;;;25.83;;
6537;SDS011;3302;52.508;13.454;2023-02-23T16:49:48;38.70;;;25.63;;
6537;SDS011;3302;52.508;13.454;2023-02-23T16:52:15;39.50;;;26.23;;
6537;SDS011;3302;52.508;13.454;2023-02-23T16:54:43;40.87;;;26.47;;
6537;SDS011;3302;52.508;13.454;2023-02-23T16:57:22;37.97;;;25.90;;
6537;SDS011;3302;52.508;13.454;2023-02-23T16:59:50;44.67;;;28.43;;
6537;SDS011;3302;52.508;13.454;2023-02-23T17:02:18;45.33;;;28.70;;
6537;SDS011;3302;52.508;13.454;2023-02-23T17:04:47;44.17;;;28.03;;
6537;SDS011;3302;52.508;13.454;2023-02-23T17:07:15;47.63;;;30.87;;
6537;SDS011;3302;52.508;13.454;2023-02-23T17:09:41;44.10;;;29.03;;
6537;SDS011;3302;52.508;13.454;2023-02-23T17:12:11;47.13;;;28.53;;
6537;SDS011;3302;52.508;13.454;2023-02-23T17:14:46;48.50;;;29.40;;
6537;SDS011;3302;52.508;13.454;2023-02-23T17:17:16;49.13;;;31.03;;
6537;SDS011;3302;52.508;13.454;2023-02-23T17:19:43;51.97;;;32.10;;
6537;SDS011;3302;52.508;13.454;2023-02-23T17:22:11;45.63;;;30.00;;
6537;SDS011;3302;52.508;13.454;2023-02-23T17:24:37;47.77;;;30.57;;
6537;SDS011;3302;52.508;13.454;2023-02-23T17:27:04;49.70;;;31.73;;
6537;SDS011;3302;52.508;13.454;2023-02-23T17:29:30;46.60;;;29.40;;
6537;SDS011;3302;52.508;13.454;2023-02-23T17:31:56;50.13;;;31.13;;
6537;SDS011;3302;52.508;13.454;2023-02-23T17:34:24;50.03;;;32.03;;